Time;durP1;ratioP1;P1;durP2;ratioP2;P2;SDS_P1;SDS_P2;PMS_P1;PMS_P2;Temp;Humidity;BMP_temperature;BMP_pressure;BME280_temperature;BME280_humidity;BME280_pressure;Samples;Min_cycle;Max_cycle;Signal;HPM_P1;HPM_P2
2023/06/27 03:00:10;;;;;;;50.42;47.58;;;18.50;93.70;;;;;;5848278;23;20313;31
2023/06/27 03:02:37;;;;;;;104.78;99.43;;;18.40;93.80;;;;;;4840412;29;20316;-77
2023/06/27 03:05:03;;;;;;;91.25;86.95;;;;;;;;;;4842777;29;20303;-77
2023/06/27 03:07:29;;;;;;;90.90;86.57;;;18.30;93.90;;;;;;4843951;29;20581;-77
2023/06/27 03:09:55;;;;;;;88.00;83.45;;;18.30;94.00;;;;;;4844476;29;20201;-77
2023/06/27 03:12:20;;;;;;;68.97;65.43;;;18.20;94.00;;;;;;4828025;29;20218;-77
2023/06/27 03:14:46;;;;;;;19.48;18.35;;;18.20;94.10;;;;;;4829334;29;20616;-80
2023/06/27 03:17:12;;;;;;;18.05;17.13;;;18.20;93.90;;;;;;4846913;29;20217;-76
2023/06/27 03:19:38;;;;;;;26.40;24.38;;;18.30;93.90;;;;;;4843464;29;20205;-79
2023/06/27 03:22:04;;;;;;;15.30;14.40;;;18.30;93.90;;;;;;4848668;29;20221;-79
2023/06/27 03:24:30;;;;;;;22.98;21.70;;;18.30;93.80;;;;;;4852341;29;20220;-79
2023/06/27 03:26:56;;;;;;;30.50;28.70;;;18.30;93.80;;;;;;4850530;29;20220;-79
2023/06/27 03:29:21;;;;;;;26.15;24.38;;;18.40;93.80;;;;;;4841169;29;21949;-66
2023/06/27 03:31:47;;;;;;;52.78;50.03;;;18.30;94.50;;;;;;4841018;29;20209;-68
2023/06/27 03:34:13;;;;;;;104.65;99.57;;;18.30;94.90;;;;;;4841102;29;20202;-69
2023/06/27 03:36:39;;;;;;;65.35;62.03;;;18.30;95.50;;;;;;4841254;29;20194;-69
2023/06/27 03:39:04;;;;;;;26.58;25.15;;;18.30;96.00;;;;;;4848179;29;20200;-69
2023/06/27 03:41:30;;;;;;;20.75;18.83;;;18.20;96.60;;;;;;4841721;29;20581;-69
2023/06/27 03:43:56;;;;;;;8.98;8.23;;;18.20;96.70;;;;;;4841251;29;20586;-70
2023/06/27 03:46:24;;;;;;;7.50;6.80;;;18.20;97.00;;;;;;4841155;29;20198;-67
2023/06/27 03:48:53;;;;;;;5.80;4.35;;;18.10;97.20;;;;;;4841000;29;20245;-69
2023/06/27 03:51:18;;;;;;;4.93;4.47;;;18.10;97.40;;;;;;4847295;29;20300;-68
2023/06/27 03:53:44;;;;;;;4.88;4.03;;;18.10;97.60;;;;;;4845365;29;20325;-67
2023/06/27 03:56:10;;;;;;;5.07;3.78;;;18.10;98.10;;;;;;4833812;29;20205;-68
2023/06/27 03:58:36;;;;;;;4.57;3.95;;;18.10;98.40;;;;;;4824702;29;20601;-68
2023/06/27 04:01:02;;;;;;;6.25;3.67;;;18.10;98.50;;;;;;4840544;29;20926;-68
2023/06/27 04:03:28;;;;;;;4.13;3.75;;;18.00;98.60;;;;;;4845777;29;20232;-68
2023/06/27 04:05:54;;;;;;;6.07;3.97;;;18.10;99.00;;;;;;4824389;29;20662;-68
2023/06/27 04:08:20;;;;;;;4.53;4.13;;;18.00;99.40;;;;;;4840160;29;20217;-68
2023/06/27 04:10:46;;;;;;;4.53;3.63;;;18.00;99.60;;;;;;4840328;29;20221;-68
2023/06/27 04:13:12;;;;;;;8.10;4.20;;;18.00;99.80;;;;;;4840364;29;20243;-68
2023/06/27 04:15:39;;;;;;;5.87;4.40;;;18.10;99.90;;;;;;4844625;29;20223;-68
2023/06/27 04:18:06;;;;;;;8.43;7.03;;;18.10;99.70;;;;;;4840613;29;20198;-75
2023/06/27 04:20:32;;;;;;;9.02;7.85;;;18.00;99.90;;;;;;4840362;29;20237;-74
2023/06/27 04:22:57;;;;;;;10.03;5.67;;;18.10;99.90;;;;;;4840273;29;20228;-75
2023/06/27 04:25:25;;;;;;;11.45;7.25;;;18.10;99.90;;;;;;4840218;29;20903;-75
2023/06/27 04:27:51;;;;;;;6.93;4.90;;;18.00;99.90;;;;;;4824490;29;20197;-73
2023/06/27 04:30:17;;;;;;;6.50;4.23;;;18.00;99.90;;;;;;4844391;29;20194;-75
2023/06/27 04:32:44;;;;;;;7.78;4.47;;;18.00;99.90;;;;;;4840059;29;20608;-74
2023/06/27 04:35:15;;;;;;;12.07;5.25;;;18.10;99.90;;;;;;4840210;29;20662;-75
2023/06/27 04:37:41;;;;;;;4.78;4.38;;;18.20;99.90;;;;;;4838638;29;20209;-75
2023/06/27 04:40:08;;;;;;;5.10;4.20;;;18.20;99.90;;;;;;4840132;29;20701;-74
2023/06/27 04:42:34;;;;;;;8.63;4.03;;;18.20;99.90;;;;;;4839886;29;20695;-75
2023/06/27 04:44:59;;;;;;;4.40;4.00;;;18.20;99.90;;;;;;4840186;29;20193;-74
2023/06/27 04:47:25;;;;;;;6.25;3.78;;;18.30;99.90;;;;;;4839637;29;20601;-77
2023/06/27 04:49:51;;;;;;;4.55;4.15;;;18.30;99.90;;;;;;4840268;29;20189;-74
2023/06/27 04:52:17;;;;;;;5.05;4.53;;;18.20;99.90;;;;;;4840121;29;20209;-75
2023/06/27 04:54:42;;;;;;;5.72;4.47;;;18.20;99.90;;;;;;4840306;29;20198;-73
2023/06/27 04:57:08;;;;;;;6.10;4.70;;;18.10;99.90;;;;;;4823634;29;20284;-74
2023/06/27 04:59:34;;;;;;;8.85;4.60;;;18.20;99.90;;;;;;4824487;29;20225;-75
2023/06/27 05:02:00;;;;;;;7.93;7.38;;;18.30;99.90;;;;;;4839806;29;20233;-75
2023/06/27 05:04:25;;;;;;;26.42;25.10;;;18.30;99.90;;;;;;4823888;29;20189;-75
2023/06/27 05:06:51;;;;;;;39.88;37.75;;;18.40;99.90;;;;;;4823606;29;20204;-74
2023/06/27 05:09:17;;;;;;;41.20;38.47;;;18.40;99.90;;;;;;4826589;29;20189;-75
2023/06/27 05:11:43;;;;;;;39.20;37.25;;;18.50;99.90;;;;;;4843151;29;20267;-75
2023/06/27 05:14:08;;;;;;;40.67;38.35;;;18.50;99.90;;;;;;4827221;29;20189;-75
2023/06/27 05:16:34;;;;;;;40.33;38.40;;;18.60;99.90;;;;;;4840401;29;20575;-75
2023/06/27 05:19:01;;;;;;;35.38;33.28;;;18.60;99.90;;;;;;4823327;29;20203;-75
2023/06/27 05:21:28;;;;;;;30.08;28.33;;;18.70;99.90;;;;;;4839888;29;20225;-75
2023/06/27 05:23:54;;;;;;;20.27;19.08;;;18.80;99.90;;;;;;4839897;29;20218;-73
2023/06/27 05:26:20;;;;;;;17.35;16.08;;;18.90;99.90;;;;;;4823387;29;20193;-66
2023/06/27 05:28:45;;;;;;;11.77;10.93;;;18.90;99.90;;;;;;4839359;29;20193;-67
2023/06/27 05:31:11;;;;;;;9.52;8.55;;;18.90;99.90;;;;;;4839688;29;20221;-67
2023/06/27 05:33:37;;;;;;;7.97;7.30;;;18.90;99.90;;;;;;4823161;29;20257;-66
2023/06/27 05:36:02;;;;;;;5.60;5.10;;;19.10;99.90;;;;;;4839729;29;20194;-66
2023/06/27 05:38:28;;;;;;;6.10;3.83;;;19.20;99.90;;;;;;4839626;29;20288;-66
2023/06/27 05:40:54;;;;;;;4.60;4.05;;;19.50;99.90;;;;;;4841497;29;20687;-68
2023/06/27 05:43:20;;;;;;;8.73;7.65;;;19.70;99.90;;;;;;4844053;29;20217;-69
2023/06/27 05:45:45;;;;;;;18.23;17.13;;;19.90;99.70;;;;;;4843309;29;20238;-66
2023/06/27 05:48:11;;;;;;;16.92;15.98;;;20.00;99.40;;;;;;4843180;29;20194;-67
2023/06/27 05:50:37;;;;;;;12.23;11.35;;;20.00;99.10;;;;;;4843284;29;20741;-67
2023/06/27 05:53:02;;;;;;;11.85;10.65;;;19.90;98.90;;;;;;4843255;29;20738;-66
2023/06/27 05:55:30;;;;;;;14.10;12.30;;;19.90;99.10;;;;;;4843099;29;20253;-67
2023/06/27 05:57:55;;;;;;;6.57;5.85;;;20.00;99.50;;;;;;4842764;29;20197;-67
2023/06/27 06:00:21;;;;;;;5.57;5.07;;;20.10;99.10;;;;;;4842831;29;20209;-67
2023/06/27 06:02:47;;;;;;;4.40;4.10;;;20.10;98.50;;;;;;4836738;29;20214;-67
2023/06/27 06:05:14;;;;;;;4.80;4.07;;;20.10;98.10;;;;;;4837949;29;20220;-66
2023/06/27 06:07:43;;;;;;;6.65;4.20;;;20.20;97.90;;;;;;4842451;29;20193;-67
2023/06/27 06:10:11;;;;;;;12.10;8.10;;;20.50;97.60;;;;;;4847767;29;20280;-69
2023/06/27 06:12:38;;;;;;;6.95;6.32;;;20.80;95.80;;;;;;4825776;29;20289;-67
2023/06/27 06:15:04;;;;;;;9.20;5.95;;;21.00;94.30;;;;;;4825755;29;20204;-68
2023/06/27 06:17:30;;;;;;;7.13;6.47;;;21.00;95.80;;;;;;4841581;29;20288;-67
2023/06/27 06:19:55;;;;;;;7.60;6.03;;;21.10;95.80;;;;;;4841998;29;20290;-66
2023/06/27 06:22:21;;;;;;;11.20;6.15;;;21.40;95.40;;;;;;4845750;29;20225;-66
2023/06/27 06:24:48;;;;;;;8.15;6.93;;;21.60;95.50;;;;;;4825417;29;20705;-67
2023/06/27 06:27:13;;;;;;;9.73;9.02;;;22.00;94.30;;;;;;4841778;29;20224;-67
2023/06/27 06:29:39;;;;;;;10.05;9.10;;;22.20;91.90;;;;;;4825532;29;20595;-68
2023/06/27 06:32:06;;;;;;;7.80;7.07;;;22.30;91.60;;;;;;4841749;29;20245;-68
2023/06/27 06:34:31;;;;;;;8.43;7.65;;;22.30;90.90;;;;;;4841509;29;20225;-68
2023/06/27 06:36:57;;;;;;;7.57;7.18;;;22.10;90.20;;;;;;4849049;29;20219;-68
2023/06/27 06:39:23;;;;;;;7.75;7.03;;;22.10;90.30;;;;;;4841298;29;20189;-68
2023/06/27 06:41:48;;;;;;;7.45;6.85;;;22.10;89.40;;;;;;4841918;29;20217;-68
2023/06/27 06:44:14;;;;;;;8.38;7.57;;;22.10;89.20;;;;;;4841277;29;20221;-71
2023/06/27 06:46:41;;;;;;;6.25;5.95;;;22.30;89.40;;;;;;4825111;29;20197;-67
2023/06/27 06:49:08;;;;;;;7.05;6.47;;;22.30;87.30;;;;;;4841182;29;20626;-68
2023/06/27 06:51:34;;;;;;;6.10;5.55;;;22.00;86.50;;;;;;4840575;29;20257;-68
2023/06/27 06:53:59;;;;;;;6.55;6.15;;;21.90;87.60;;;;;;4841643;29;20262;-67
2023/06/27 06:56:25;;;;;;;8.55;7.82;;;22.10;86.40;;;;;;4841749;29;20205;-68
2023/06/27 06:58:51;;;;;;;7.60;7.00;;;22.60;85.40;;;;;;4848949;29;20197;-68
2023/06/27 07:01:18;;;;;;;5.93;5.45;;;23.50;82.50;;;;;;4847863;29;20240;-79
2023/06/27 07:03:43;;;;;;;4.63;3.65;;;23.80;80.50;;;;;;4827648;29;20228;-79
2023/06/27 07:06:09;;;;;;;8.57;7.90;;;23.70;78.80;;;;;;4845738;29;20285;-80
2023/06/27 07:08:35;;;;;;;14.98;14.07;;;24.00;76.10;;;;;;4840420;29;20273;-80
2023/06/27 07:11:01;;;;;;;16.85;15.65;;;24.30;75.40;;;;;;4833349;29;20222;-77
2023/06/27 07:13:27;;;;;;;14.77;13.93;;;24.40;75.40;;;;;;4837374;29;20467;-78
2023/06/27 07:15:53;;;;;;;17.63;16.63;;;24.80;75.50;;;;;;4853569;29;20198;-78
2023/06/27 07:18:18;;;;;;;17.85;16.92;;;25.20;72.40;;;;;;4831267;29;20197;-80
2023/06/27 07:20:44;;;;;;;17.55;16.65;;;25.30;70.30;;;;;;4831473;29;20377;-80
2023/06/27 07:23:10;;;;;;;15.25;14.05;;;25.10;69.90;;;;;;4845337;29;20232;-80
2023/06/27 07:25:38;;;;;;;18.15;17.02;;;24.70;69.40;;;;;;4829057;29;20896;-80
2023/06/27 07:28:04;;;;;;;16.63;15.63;;;24.40;69.90;;;;;;4844427;29;20193;-80
2023/06/27 07:30:30;;;;;;;17.27;16.25;;;24.20;71.50;;;;;;4844348;29;20250;-80
2023/06/27 07:32:55;;;;;;;16.42;15.50;;;24.40;72.10;;;;;;4827867;29;20686;-79
2023/06/27 07:35:21;;;;;;;18.80;17.83;;;24.30;70.80;;;;;;4827790;29;20338;-78
2023/06/27 07:37:47;;;;;;;19.55;18.55;;;23.70;72.90;;;;;;4831046;29;20226;-77
2023/06/27 07:40:13;;;;;;;19.23;18.23;;;23.10;75.40;;;;;;4831376;29;20281;-77
2023/06/27 07:42:39;;;;;;;18.25;17.20;;;23.10;76.40;;;;;;4830935;29;20724;-79
2023/06/27 07:45:05;;;;;;;17.45;16.48;;;23.30;74.70;;;;;;4848612;29;20201;-77
2023/06/27 07:47:31;;;;;;;16.15;14.90;;;23.20;75.30;;;;;;4839384;29;20220;-78
2023/06/27 07:49:57;;;;;;;6.80;6.40;;;23.00;76.10;;;;;;4847118;29;20685;-79
2023/06/27 07:52:23;;;;;;;4.75;4.38;;;22.40;78.30;;;;;;4827972;29;20301;-79
2023/06/27 07:54:48;;;;;;;6.88;5.65;;;22.30;78.10;;;;;;4844561;29;20686;-79
2023/06/27 07:57:14;;;;;;;9.35;8.55;;;22.70;78.10;;;;;;4827523;29;20198;-78
2023/06/27 07:59:40;;;;;;;11.85;11.25;;;22.90;76.40;;;;;;4844048;29;20200;-79
2023/06/27 08:02:06;;;;;;;17.73;16.58;;;23.40;76.10;;;;;;4842845;29;20226;-78
2023/06/27 08:04:32;;;;;;;19.42;18.33;;;23.80;74.10;;;;;;4826419;29;20198;-79
2023/06/27 08:06:58;;;;;;;20.45;18.98;;;23.90;73.80;;;;;;4826652;29;20272;-79
2023/06/27 08:09:24;;;;;;;17.70;16.40;;;23.90;72.80;;;;;;4830956;29;20220;-79
2023/06/27 08:11:51;;;;;;;17.23;16.00;;;24.10;73.20;;;;;;4844989;29;20210;-78
2023/06/27 08:14:17;;;;;;;15.15;14.25;;;23.90;72.90;;;;;;4826848;29;20201;-78
2023/06/27 08:16:43;;;;;;;17.33;16.35;;;23.80;72.70;;;;;;4845205;29;20289;-77
2023/06/27 08:19:09;;;;;;;18.58;17.17;;;24.10;73.50;;;;;;4832282;29;20240;-79
2023/06/27 08:21:34;;;;;;;18.42;17.30;;;24.20;72.70;;;;;;4829310;29;20389;-79
2023/06/27 08:24:00;;;;;;;24.13;22.80;;;23.90;72.80;;;;;;4844257;29;20777;-79
2023/06/27 08:26:26;;;;;;;19.88;18.58;;;23.40;74.50;;;;;;4843856;29;20197;-79
2023/06/27 08:28:52;;;;;;;19.08;18.05;;;23.20;75.00;;;;;;4843332;29;20189;-79
2023/06/27 08:31:18;;;;;;;18.38;17.33;;;23.40;75.10;;;;;;4843450;29;20214;-79
2023/06/27 08:33:44;;;;;;;21.23;20.05;;;23.60;73.80;;;;;;4827313;29;20802;-79
2023/06/27 08:36:10;;;;;;;17.52;16.08;;;23.70;73.90;;;;;;4842939;29;20194;-79
2023/06/27 08:38:36;;;;;;;16.05;15.07;;;24.00;73.10;;;;;;4842297;29;20550;-77
2023/06/27 08:41:02;;;;;;;18.65;17.48;;;24.00;72.00;;;;;;4829541;29;20246;-78
2023/06/27 08:43:28;;;;;;;18.20;17.00;;;23.30;74.00;;;;;;4827965;29;20221;-77
2023/06/27 08:45:54;;;;;;;13.32;12.30;;;23.70;73.80;;;;;;4845060;29;20245;-77
2023/06/27 08:48:21;;;;;;;16.48;15.45;;;24.30;71.70;;;;;;4850702;29;20623;-79
2023/06/27 08:50:52;;;;;;;20.17;18.92;;;24.70;71.30;;;;;;4827249;29;20216;-79
2023/06/27 08:53:21;;;;;;;17.75;16.75;;;25.20;69.80;;;;;;4843427;29;20221;-78
2023/06/27 08:56:08;;;;;;;26.20;24.80;;;25.10;68.80;;;;;;4844125;29;20232;-79
2023/06/27 08:58:59;;;;;;;21.83;20.30;;;24.90;69.10;;;;;;4844257;29;20197;-79
2023/06/27 09:01:28;;;;;;;19.88;18.77;;;24.90;68.90;;;;;;4827129;29;20315;-79
2023/06/27 09:03:53;;;;;;;17.95;17.02;;;25.10;68.90;;;;;;4828091;29;20214;-77
2023/06/27 09:06:19;;;;;;;21.48;19.88;;;25.00;68.40;;;;;;4838354;29;20205;-79
2023/06/27 09:08:45;;;;;;;19.88;18.63;;;25.10;69.70;;;;;;4828019;29;20261;-79
2023/06/27 09:11:11;;;;;;;14.15;13.25;;;25.50;68.70;;;;;;4827571;29;20221;-80
2023/06/27 09:13:37;;;;;;;14.15;12.95;;;25.60;68.50;;;;;;4844512;29;20202;-78
2023/06/27 09:16:07;;;;;;;15.55;14.52;;;25.80;68.20;;;;;;4875556;24;20377;-76
2023/06/27 09:18:35;;;;;;;8.20;7.70;;;26.00;67.80;;;;;;4861619;29;20253;-76
2023/06/27 09:21:01;;;;;;;6.68;6.18;;;26.80;65.20;;;;;;4861946;29;20292;-76
2023/06/27 09:23:29;;;;;;;6.55;4.93;;;26.70;64.60;;;;;;4861717;29;20232;-76
2023/06/27 09:26:12;;;;;;;4.57;4.20;;;26.90;64.70;;;;;;4845200;29;20224;-77
2023/06/27 09:28:49;;;;;;;6.60;4.63;;;26.80;63.90;;;;;;4845193;29;20205;-76
2023/06/27 09:31:22;;;;;;;3.33;3.13;;;27.00;63.10;;;;;;4861668;29;20203;-74
2023/06/27 09:33:48;;;;;;;7.43;3.50;;;27.10;63.40;;;;;;4845349;29;20704;-75
2023/06/27 09:36:32;;;;;;;4.10;3.80;;;27.20;63.00;;;;;;4861752;29;20275;-76
2023/06/27 09:39:06;;;;;;;4.38;4.07;;;27.90;61.80;;;;;;4868067;29;20196;-75
2023/06/27 09:41:44;;;;;;;6.38;3.50;;;27.80;61.30;;;;;;4862131;29;20208;-75
2023/06/27 09:44:21;;;;;;;4.97;3.47;;;28.20;60.40;;;;;;4861912;29;20222;-75
2023/06/27 09:46:48;;;;;;;3.75;3.55;;;28.00;60.90;;;;;;4861721;29;20674;-75
2023/06/27 09:49:15;;;;;;;3.80;3.38;;;27.70;61.10;;;;;;4861237;29;20284;-75
2023/06/27 09:51:45;;;;;;;5.30;4.35;;;27.10;61.60;;;;;;4845264;29;20200;-75
2023/06/27 09:54:17;;;;;;;4.88;4.53;;;26.80;62.10;;;;;;4868989;29;20193;-75
2023/06/27 09:56:43;;;;;;;4.20;3.65;;;26.70;62.80;;;;;;4861205;29;20243;-75
2023/06/27 09:59:12;;;;;;;4.72;4.38;;;26.70;64.10;;;;;;4844640;29;20221;-75
2023/06/27 10:01:39;;;;;;;6.50;4.75;;;26.80;62.30;;;;;;4861461;29;20287;-75
2023/06/27 10:04:05;;;;;;;6.50;4.80;;;26.40;62.30;;;;;;4861336;29;20212;-75
2023/06/27 10:06:32;;;;;;;6.13;4.13;;;26.10;62.70;;;;;;4861056;29;20317;-75
2023/06/27 10:08:59;;;;;;;5.60;4.55;;;26.20;62.70;;;;;;4844201;29;20196;-75
2023/06/27 10:11:25;;;;;;;4.53;4.15;;;26.20;63.10;;;;;;4844981;29;20620;-74
2023/06/27 10:13:52;;;;;;;4.68;3.80;;;26.60;64.10;;;;;;4861022;29;20324;-76
2023/06/27 10:16:18;;;;;;;6.05;3.90;;;26.80;63.90;;;;;;4844357;29;20248;-76
2023/06/27 10:18:44;;;;;;;4.80;4.00;;;27.00;60.90;;;;;;4860759;29;20319;-76
2023/06/27 10:21:11;;;;;;;3.90;3.60;;;26.80;62.60;;;;;;4860890;29;20201;-77
2023/06/27 10:23:40;;;;;;;4.78;4.35;;;26.30;63.30;;;;;;4844568;29;20217;-77
2023/06/27 10:26:09;;;;;;;7.85;3.80;;;26.30;63.50;;;;;;4861513;29;20417;-76
2023/06/27 10:28:35;;;;;;;4.53;4.07;;;26.70;63.60;;;;;;4844164;29;20546;-75
2023/06/27 10:31:04;;;;;;;4.93;4.07;;;27.40;60.90;;;;;;4860996;29;20206;-74
2023/06/27 10:33:32;;;;;;;6.07;4.72;;;27.50;59.90;;;;;;4861105;29;20193;-75
2023/06/27 10:36:05;;;;;;;3.88;3.63;;;27.90;59.10;;;;;;4860981;29;20223;-75
2023/06/27 10:38:39;;;;;;;4.28;3.50;;;28.40;58.10;;;;;;4860278;29;20212;-75
2023/06/27 10:41:09;;;;;;;4.70;3.90;;;28.70;58.50;;;;;;4860681;29;20688;-75
2023/06/27 10:43:54;;;;;;;4.72;4.18;;;28.90;58.20;;;;;;4854046;29;20220;-76
2023/06/27 10:46:22;;;;;;;5.15;4.80;;;28.50;57.10;;;;;;4853080;29;20224;-75
2023/06/27 10:49:02;;;;;;;4.53;4.13;;;28.10;57.30;;;;;;4855334;29;20835;-75
2023/06/27 10:51:41;;;;;;;4.30;3.97;;;27.40;58.20;;;;;;4860409;29;20692;-75
2023/06/27 10:54:07;;;;;;;21.13;17.35;;;27.10;58.80;;;;;;4860541;29;20215;-75
2023/06/27 10:56:38;;;;;;;10.45;9.55;;;27.10;59.60;;;;;;4859870;29;20209;-75
2023/06/27 10:59:08;;;;;;;10.00;6.03;;;27.10;58.90;;;;;;4859850;29;20278;-74
2023/06/27 11:01:35;;;;;;;4.38;3.92;;;27.30;59.60;;;;;;4845041;29;20199;-75
2023/06/27 11:04:16;;;;;;;5.00;4.57;;;27.70;59.00;;;;;;4859806;29;20693;-75
2023/06/27 11:06:45;;;;;;;6.35;5.85;;;28.20;59.40;;;;;;4860494;29;20213;-75
2023/06/27 11:09:18;;;;;;;6.18;5.57;;;28.50;56.70;;;;;;4859945;29;20193;-75
2023/06/27 11:11:54;;;;;;;7.05;6.40;;;28.20;56.50;;;;;;4844820;29;20564;-76
2023/06/27 11:14:34;;;;;;;5.82;4.90;;;28.20;56.80;;;;;;4855585;29;20185;-75
2023/06/27 11:17:04;;;;;;;5.07;4.63;;;27.90;56.50;;;;;;4859697;29;20223;-75
2023/06/27 11:19:32;;;;;;;6.47;4.40;;;27.60;56.70;;;;;;4859870;29;20197;-74
2023/06/27 11:21:58;;;;;;;5.10;4.38;;;27.50;57.00;;;;;;4866620;29;20189;-74
2023/06/27 11:24:25;;;;;;;12.73;11.43;;;27.50;56.50;;;;;;4860201;29;20261;-74
2023/06/27 11:26:53;;;;;;;6.88;6.22;;;27.50;55.90;;;;;;4860145;29;20237;-75
2023/06/27 11:29:20;;;;;;;6.45;5.95;;;27.50;55.70;;;;;;4860067;29;20225;-75
2023/06/27 11:31:46;;;;;;;7.07;5.43;;;27.50;55.50;;;;;;4860169;29;20577;-75
2023/06/27 11:34:12;;;;;;;4.95;4.65;;;27.50;56.10;;;;;;4859640;29;20256;-75
2023/06/27 11:36:38;;;;;;;4.32;3.92;;;27.50;56.40;;;;;;4859714;29;20224;-75
2023/06/27 11:39:06;;;;;;;5.60;5.20;;;27.80;57.00;;;;;;4858719;29;20197;-75
2023/06/27 11:41:31;;;;;;;7.28;6.78;;;28.10;56.00;;;;;;4843108;29;20277;-75
2023/06/27 11:43:57;;;;;;;4.47;4.18;;;27.90;55.60;;;;;;4859545;29;20776;-75
2023/06/27 11:46:25;;;;;;;4.93;4.35;;;27.80;56.40;;;;;;4859465;29;20593;-75
2023/06/27 11:48:51;;;;;;;7.03;6.63;;;27.80;56.40;;;;;;4859068;29;20197;-75
2023/06/27 11:51:17;;;;;;;9.52;8.82;;;28.10;55.00;;;;;;4859500;29;20241;-75
2023/06/27 11:53:50;;;;;;;11.90;10.95;;;28.20;53.90;;;;;;4859530;29;20623;-75
2023/06/27 11:56:17;;;;;;;11.75;11.02;;;28.20;53.70;;;;;;4859154;29;20264;-75
2023/06/27 11:58:46;;;;;;;14.13;13.43;;;28.40;54.00;;;;;;4859004;29;20201;-76
2023/06/27 12:01:16;;;;;;;11.77;11.07;;;28.50;54.10;;;;;;4855550;29;20205;-76
2023/06/27 12:03:51;;;;;;;12.10;11.40;;;28.50;53.60;;;;;;4850438;29;20271;-76
2023/06/27 12:06:28;;;;;;;12.65;11.95;;;28.30;54.40;;;;;;4859107;29;20268;-76
2023/06/27 12:08:54;;;;;;;11.68;11.02;;;28.50;53.80;;;;;;4849084;29;20293;-76
2023/06/27 12:11:37;;;;;;;9.23;8.63;;;28.90;53.40;;;;;;4842669;29;20190;-76
2023/06/27 12:14:04;;;;;;;7.63;7.13;;;29.30;52.70;;;;;;4842690;29;20200;-77
2023/06/27 12:16:35;;;;;;;9.65;9.05;;;29.40;52.50;;;;;;4867467;29;20232;-75
2023/06/27 12:19:05;;;;;;;10.15;9.52;;;29.90;52.30;;;;;;4853425;29;20701;-75
2023/06/27 12:21:32;;;;;;;12.98;11.80;;;30.20;51.50;;;;;;4864041;29;20201;-75
2023/06/27 12:23:58;;;;;;;17.05;16.05;;;30.20;51.80;;;;;;4853804;29;20216;-75
2023/06/27 12:26:23;;;;;;;19.33;18.02;;;30.20;51.30;;;;;;4843341;29;20223;-76
2023/06/27 12:28:56;;;;;;;24.25;23.00;;;30.00;51.80;;;;;;4858855;29;20199;-75
2023/06/27 12:31:22;;;;;;;23.33;22.13;;;30.00;51.20;;;;;;4842071;29;20192;-77
2023/06/27 12:33:48;;;;;;;27.10;25.58;;;30.20;51.40;;;;;;4858838;29;20568;-75
2023/06/27 12:36:14;;;;;;;33.15;31.42;;;30.60;50.10;;;;;;4842307;29;20281;-75
2023/06/27 12:38:40;;;;;;;38.22;36.15;;;30.50;50.30;;;;;;4858023;29;20621;-75
2023/06/27 12:41:06;;;;;;;35.25;32.33;;;30.30;51.50;;;;;;4858617;29;20204;-75
2023/06/27 12:43:32;;;;;;;33.03;31.00;;;30.80;49.80;;;;;;4858611;29;20749;-75
2023/06/27 12:46:01;;;;;;;16.80;15.70;;;31.10;50.40;;;;;;4858240;29;20221;-76
2023/06/27 12:48:27;;;;;;;4.38;4.07;;;31.50;48.90;;;;;;4858062;29;20285;-75
2023/06/27 12:50:53;;;;;;;3.72;3.47;;;32.00;47.00;;;;;;4858036;29;20308;-76
2023/06/27 12:53:18;;;;;;;9.82;6.30;;;32.70;46.50;;;;;;4857975;29;20188;-76
2023/06/27 12:55:45;;;;;;;16.38;15.35;;;33.10;46.80;;;;;;4856510;29;20219;-76
2023/06/27 12:58:11;;;;;;;30.52;28.70;;;33.30;46.00;;;;;;4840619;29;20607;-74
2023/06/27 13:00:42;;;;;;;40.70;38.60;;;33.60;45.70;;;;;;4858572;29;20193;-76
2023/06/27 13:03:08;;;;;;;15.55;14.63;;;32.50;45.90;;;;;;4857491;29;20234;-75
2023/06/27 13:05:34;;;;;;;6.50;6.00;;;30.40;48.00;;;;;;4858384;29;20296;-75
2023/06/27 13:08:00;;;;;;;7.43;5.95;;;29.60;49.70;;;;;;4857887;29;20193;-76
2023/06/27 13:10:26;;;;;;;9.23;6.90;;;29.80;49.10;;;;;;4858305;29;20192;-76
2023/06/27 13:12:52;;;;;;;4.72;4.32;;;30.70;49.50;;;;;;4858704;29;20615;-76
2023/06/27 13:15:18;;;;;;;13.50;12.23;;;31.30;48.10;;;;;;4858324;29;20732;-75
2023/06/27 13:17:45;;;;;;;19.08;17.02;;;32.00;47.40;;;;;;4841531;29;20204;-76
2023/06/27 13:20:12;;;;;;;10.80;9.77;;;32.00;47.40;;;;;;4858282;29;20185;-75
2023/06/27 13:22:42;;;;;;;7.82;7.07;;;32.00;47.40;;;;;;4858064;29;20221;-75
2023/06/27 13:25:08;;;;;;;7.03;6.57;;;31.20;47.80;;;;;;4858062;29;20209;-74
2023/06/27 13:27:36;;;;;;;12.45;11.43;;;30.00;49.70;;;;;;4857916;29;20809;-75
2023/06/27 13:30:03;;;;;;;18.33;16.70;;;29.80;50.10;;;;;;4841910;29;20287;-75
2023/06/27 13:32:31;;;;;;;27.60;25.45;;;30.20;49.30;;;;;;4842230;29;20220;-75
2023/06/27 13:35:00;;;;;;;24.75;22.92;;;30.20;49.50;;;;;;4858580;29;20255;-74
2023/06/27 13:37:27;;;;;;;11.18;10.52;;;30.20;49.40;;;;;;4858501;29;20216;-75
2023/06/27 13:39:52;;;;;;;12.43;11.52;;;30.10;49.00;;;;;;4841819;29;20200;-75
2023/06/27 13:42:19;;;;;;;20.73;19.63;;;30.00;49.00;;;;;;4858077;29;20193;-75
2023/06/27 13:44:45;;;;;;;24.75;23.40;;;29.90;49.10;;;;;;4851719;29;20233;-75
2023/06/27 13:47:11;;;;;;;35.05;33.17;;;29.80;49.80;;;;;;4864563;29;20272;-75
2023/06/27 13:49:37;;;;;;;26.83;25.17;;;29.90;49.80;;;;;;4859062;29;20192;-75
2023/06/27 13:52:04;;;;;;;39.17;37.10;;;29.90;49.40;;;;;;4858045;29;20193;-75
2023/06/27 13:54:30;;;;;;;34.50;32.60;;;29.30;50.10;;;;;;4862715;29;20192;-74
2023/06/27 13:56:57;;;;;;;25.77;24.23;;;28.70;50.90;;;;;;4855469;29;20205;-75
2023/06/27 13:59:23;;;;;;;13.98;13.10;;;28.40;52.10;;;;;;4858689;29;20204;-75
2023/06/27 14:01:49;;;;;;;18.33;17.23;;;28.40;52.70;;;;;;4857597;29;20268;-75
2023/06/27 14:04:15;;;;;;;12.57;11.88;;;28.40;50.70;;;;;;4861583;29;20307;-75
2023/06/27 14:06:41;;;;;;;17.48;16.40;;;28.20;51.70;;;;;;4861227;29;20240;-75
2023/06/27 14:09:10;;;;;;;24.40;23.08;;;29.30;50.50;;;;;;4862016;29;20692;-75
2023/06/27 14:11:36;;;;;;;17.05;15.93;;;29.10;49.80;;;;;;4861253;29;20199;-75
2023/06/27 14:14:04;;;;;;;14.85;14.05;;;28.20;50.30;;;;;;4861297;29;20220;-74
2023/06/27 14:16:30;;;;;;;14.07;13.27;;;28.00;51.60;;;;;;4862165;29;20349;-74
2023/06/27 14:18:56;;;;;;;25.70;24.38;;;28.90;51.30;;;;;;4862309;29;20229;-75
2023/06/27 14:21:21;;;;;;;19.95;18.50;;;30.20;48.60;;;;;;4843610;29;20199;-75
2023/06/27 14:23:51;;;;;;;12.48;11.77;;;30.60;48.10;;;;;;4844312;29;20705;-75
2023/06/27 14:26:16;;;;;;;18.10;17.20;;;30.40;48.20;;;;;;4860927;29;20205;-75
2023/06/27 14:28:42;;;;;;;12.52;11.85;;;30.30;48.80;;;;;;4860811;29;20745;-74
2023/06/27 14:31:08;;;;;;;21.10;19.95;;;30.00;48.10;;;;;;4844507;29;20273;-77
2023/06/27 14:33:34;;;;;;;23.13;21.75;;;29.30;47.90;;;;;;4861032;29;20193;-76
2023/06/27 14:35:59;;;;;;;22.73;21.13;;;29.40;48.10;;;;;;4860793;29;20300;-76
2023/06/27 14:38:25;;;;;;;11.65;10.65;;;29.90;47.10;;;;;;4860795;29;20228;-76
2023/06/27 14:40:51;;;;;;;6.70;6.30;;;30.30;46.40;;;;;;4844639;29;20200;-75
2023/06/27 14:43:20;;;;;;;5.80;5.45;;;30.50;46.00;;;;;;4859825;29;20216;-75
2023/06/27 14:45:46;;;;;;;6.28;4.82;;;30.70;45.70;;;;;;4860712;29;20205;-76
2023/06/27 14:48:13;;;;;;;20.40;18.75;;;31.00;46.00;;;;;;4860649;29;20270;-76
2023/06/27 14:50:38;;;;;;;22.70;20.48;;;31.50;44.60;;;;;;4844466;29;20189;-75
2023/06/27 14:53:06;;;;;;;8.25;7.30;;;30.80;44.90;;;;;;4860600;29;20587;-76
2023/06/27 14:55:32;;;;;;;6.88;6.13;;;30.20;46.00;;;;;;4844078;29;20638;-76
2023/06/27 14:57:58;;;;;;;6.43;5.82;;;30.70;45.80;;;;;;4860296;29;20658;-76
2023/06/27 15:00:24;;;;;;;7.00;6.50;;;30.50;45.10;;;;;;4860373;29;20200;-75
2023/06/27 15:02:50;;;;;;;8.43;7.85;;;30.40;45.40;;;;;;4844179;29;20220;-76
2023/06/27 15:05:16;;;;;;;14.25;13.40;;;31.20;44.20;;;;;;4860583;29;20638;-76
2023/06/27 15:07:41;;;;;;;14.18;13.30;;;31.60;44.20;;;;;;4860323;29;20220;-76
2023/06/27 15:10:08;;;;;;;23.60;21.17;;;31.00;45.40;;;;;;4860444;29;20273;-76
2023/06/27 15:12:35;;;;;;;7.00;6.50;;;30.40;45.00;;;;;;4859674;29;20205;-78
2023/06/27 15:15:03;;;;;;;17.10;16.10;;;29.00;45.80;;;;;;4860015;29;20261;-78
2023/06/27 15:17:30;;;;;;;25.45;23.90;;;27.90;47.90;;;;;;4875832;24;20240;-79
2023/06/27 15:19:56;;;;;;;15.50;14.45;;;27.40;49.00;;;;;;4864185;29;20196;-79
2023/06/27 15:22:28;;;;;;;21.30;19.70;;;27.20;50.20;;;;;;4871669;29;20193;-80
2023/06/27 15:24:54;;;;;;;16.98;15.98;;;27.30;51.30;;;;;;4859444;29;21187;-78
2023/06/27 15:27:21;;;;;;;17.10;16.20;;;28.00;49.80;;;;;;4855688;29;20210;-79
2023/06/27 15:29:47;;;;;;;18.70;17.77;;;28.70;49.10;;;;;;4850664;29;20189;-80
2023/06/27 15:32:13;;;;;;;24.63;22.88;;;28.90;48.00;;;;;;4852763;29;20213;-82
2023/06/27 15:34:41;;;;;;;22.73;21.35;;;28.60;48.70;;;;;;4844905;29;20253;-79